createdAt,value
2023-01-26T00:01:18.053Z,10.30
2023-01-26T00:03:46.274Z,10.30
2023-01-26T00:06:15.191Z,10.30
2023-01-26T00:08:44.214Z,10.30
2023-01-26T00:11:13.626Z,10.30
2023-01-26T00:13:41.326Z,10.20
2023-01-26T00:16:13.550Z,10.20
2023-01-26T00:18:41.451Z,10.20
2023-01-26T00:21:12.467Z,10.10
2023-01-26T00:23:39.498Z,10.10
2023-01-26T00:26:07.939Z,10.10
2023-01-26T00:28:35.039Z,10.00
2023-01-26T00:31:03.673Z,10.00
2023-01-26T00:33:31.168Z,10.00
2023-01-26T00:35:58.167Z,10.00
2023-01-26T00:38:26.954Z,10.00
2023-01-26T00:40:54.096Z,9.90
2023-01-26T00:43:21.138Z,10.00
2023-01-26T00:45:48.210Z,10.00
2023-01-26T00:48:15.311Z,10.00
2023-01-26T00:50:43.524Z,10.10
2023-01-26T00:53:11.097Z,10.10
2023-01-26T00:55:38.460Z,10.20
2023-01-26T00:58:07.730Z,10.20
2023-01-26T01:00:37.057Z,10.20
2023-01-26T01:03:05.964Z,10.20
2023-01-26T01:05:34.166Z,10.20
2023-01-26T01:08:01.714Z,10.20
2023-01-26T01:10:28.905Z,10.20
2023-01-26T01:12:56.767Z,10.20
2023-01-26T01:15:24.881Z,10.20
2023-01-26T01:17:52.515Z,10.20
2023-01-26T01:20:19.828Z,10.20
2023-01-26T01:22:47.022Z,10.20
2023-01-26T01:25:14.204Z,10.20
2023-01-26T01:27:41.320Z,10.20
2023-01-26T01:30:09.448Z,10.20
2023-01-26T01:32:36.766Z,10.30
2023-01-26T01:35:04.338Z,10.20
2023-01-26T01:37:31.674Z,10.30
2023-01-26T01:39:58.859Z,10.20
2023-01-26T01:42:26.349Z,10.30
2023-01-26T01:45:27.106Z,10.20
2023-01-26T01:47:57.451Z,10.20
2023-01-26T01:50:26.013Z,10.20
2023-01-26T01:52:54.584Z,10.20
2023-01-26T01:55:21.673Z,10.20
2023-01-26T01:57:55.961Z,10.20
2023-01-26T02:00:24.703Z,10.20
2023-01-26T02:03:19.625Z,10.20
2023-01-26T02:06:08.904Z,10.20
2023-01-26T02:08:43.120Z,10.20
2023-01-26T02:11:16.554Z,10.20
2023-01-26T02:13:46.128Z,10.20
2023-01-26T02:16:13.360Z,10.20
2023-01-26T02:18:41.702Z,10.20
2023-01-26T02:21:11.706Z,10.20
2023-01-26T02:23:41.956Z,10.20
2023-01-26T02:26:29.433Z,10.20
2023-01-26T02:28:56.743Z,10.20
2023-01-26T02:31:25.036Z,10.20
2023-01-26T02:33:53.250Z,10.20
2023-01-26T02:36:24.229Z,10.20
2023-01-26T02:39:14.238Z,10.20
2023-01-26T02:42:00.712Z,10.10
2023-01-26T02:44:29.400Z,10.20
2023-01-26T02:46:56.485Z,10.20
2023-01-26T02:49:41.966Z,10.20
2023-01-26T02:52:09.335Z,10.20
2023-01-26T02:54:54.666Z,10.20
2023-01-26T02:57:22.482Z,10.20
2023-01-26T02:59:51.447Z,10.20
2023-01-26T03:02:18.985Z,10.20
2023-01-26T03:04:45.997Z,10.20
2023-01-26T03:07:14.284Z,10.20
2023-01-26T03:09:41.183Z,10.20
2023-01-26T03:12:09.265Z,10.20
2023-01-26T03:14:36.243Z,10.20
2023-01-26T03:17:03.192Z,10.20
2023-01-26T03:19:49.788Z,10.20
2023-01-26T03:22:35.335Z,10.20
2023-01-26T03:25:20.798Z,10.20
2023-01-26T03:27:49.750Z,10.20
2023-01-26T03:30:19.128Z,10.20
2023-01-26T03:32:48.008Z,10.20
2023-01-26T03:35:22.581Z,10.20
2023-01-26T03:37:54.593Z,10.30
2023-01-26T03:40:55.856Z,10.30
2023-01-26T03:43:41.304Z,10.20
2023-01-26T03:46:27.729Z,10.30
2023-01-26T03:49:13.221Z,10.20
2023-01-26T03:51:58.639Z,10.20
2023-01-26T03:54:44.153Z,10.20
2023-01-26T03:57:11.541Z,10.30
2023-01-26T03:59:38.789Z,10.20
2023-01-26T04:02:30.466Z,10.20
2023-01-26T04:05:17.212Z,10.20
2023-01-26T04:08:06.087Z,10.20
2023-01-26T04:10:33.065Z,10.20
2023-01-26T04:13:21.646Z,10.20
2023-01-26T04:16:12.178Z,10.20
2023-01-26T04:18:58.485Z,10.20
2023-01-26T04:21:35.732Z,10.20
2023-01-26T04:24:16.788Z,10.20
2023-01-26T04:26:44.616Z,10.10
2023-01-26T04:29:17.051Z,10.10
2023-01-26T04:31:45.860Z,10.20
2023-01-26T04:34:16.170Z,10.20
2023-01-26T04:36:44.022Z,10.20
2023-01-26T04:39:11.225Z,10.20
2023-01-26T04:41:42.536Z,10.20
2023-01-26T04:44:12.197Z,10.20
2023-01-26T04:46:39.574Z,10.20
2023-01-26T04:49:07.030Z,10.20
2023-01-26T04:51:35.137Z,10.20
2023-01-26T04:54:02.084Z,10.20
2023-01-26T04:56:32.058Z,10.10
2023-01-26T04:59:03.039Z,10.10
2023-01-26T05:01:32.110Z,10.10
2023-01-26T05:04:00.898Z,10.10
2023-01-26T05:06:29.952Z,10.10
2023-01-26T05:08:57.489Z,10.10
2023-01-26T05:11:25.954Z,10.10
2023-01-26T05:14:02.818Z,10.10
2023-01-26T05:16:43.717Z,10.00
2023-01-26T05:19:39.061Z,10.00
2023-01-26T05:22:24.707Z,10.00
2023-01-26T05:25:26.423Z,10.00
2023-01-26T05:28:00.376Z,10.00
2023-01-26T05:30:27.935Z,9.90
2023-01-26T05:33:02.081Z,9.90
2023-01-26T05:35:29.508Z,9.90
2023-01-26T05:37:56.654Z,10.00
2023-01-26T05:40:26.113Z,10.00
2023-01-26T05:42:54.685Z,10.00
2023-01-26T05:45:28.510Z,10.00
2023-01-26T05:47:59.559Z,10.00
2023-01-26T05:50:27.010Z,10.00
2023-01-26T05:53:12.511Z,10.00
2023-01-26T05:55:40.648Z,10.00
2023-01-26T05:58:07.791Z,10.00
2023-01-26T06:00:34.808Z,10.00
2023-01-26T06:03:08.256Z,10.00
2023-01-26T06:05:35.307Z,10.00
2023-01-26T06:08:08.803Z,9.90
2023-01-26T06:10:49.873Z,9.90
2023-01-26T06:13:37.136Z,10.00
2023-01-26T06:16:19.746Z,9.90
2023-01-26T06:18:49.769Z,9.90
2023-01-26T06:21:17.877Z,9.90
2023-01-26T06:23:45.260Z,9.80
2023-01-26T06:26:13.155Z,9.80
2023-01-26T06:28:40.316Z,9.80
2023-01-26T06:31:08.447Z,9.80
2023-01-26T06:33:37.342Z,9.70
2023-01-26T06:36:15.099Z,9.70
2023-01-26T06:38:48.912Z,9.70
2023-01-26T06:41:17.018Z,9.70
2023-01-26T06:43:46.652Z,9.70
2023-01-26T06:46:15.220Z,9.70
2023-01-26T06:48:43.367Z,9.70
2023-01-26T06:51:16.509Z,9.70
2023-01-26T06:53:57.628Z,9.70
2023-01-26T06:56:42.381Z,9.70
2023-01-26T06:59:28.859Z,9.70
2023-01-26T07:02:34.542Z,9.70
2023-01-26T07:05:01.558Z,9.70
2023-01-26T07:07:29.265Z,9.70
2023-01-26T07:09:56.195Z,9.70
2023-01-26T07:12:23.285Z,9.60
2023-01-26T07:14:52.086Z,9.60
2023-01-26T07:17:18.994Z,9.60
2023-01-26T07:19:46.018Z,9.60
2023-01-26T07:22:15.118Z,9.60
2023-01-26T07:24:42.118Z,9.60
2023-01-26T07:27:09.168Z,9.60
2023-01-26T07:29:36.042Z,9.70
2023-01-26T07:32:03.102Z,9.70
2023-01-26T07:34:30.087Z,9.70
2023-01-26T07:36:57.162Z,9.70
2023-01-26T07:39:24.087Z,9.70
2023-01-26T07:41:51.135Z,9.70
2023-01-26T07:44:33.474Z,9.70
2023-01-26T07:47:00.520Z,9.70
2023-01-26T07:49:27.630Z,9.70
2023-01-26T07:51:54.600Z,9.80
2023-01-26T07:54:21.701Z,9.80
2023-01-26T07:56:54.863Z,9.70
2023-01-26T07:59:22.467Z,9.80
2023-01-26T08:01:50.592Z,9.80
2023-01-26T08:04:17.806Z,9.80
2023-01-26T08:06:44.834Z,9.80
2023-01-26T08:09:11.918Z,9.80
2023-01-26T08:11:38.851Z,9.80
2023-01-26T08:14:05.746Z,9.80
2023-01-26T08:16:32.869Z,9.80
2023-01-26T08:19:00.052Z,9.80
2023-01-26T08:21:27.123Z,9.80
2023-01-26T08:23:54.210Z,9.80
2023-01-26T08:26:21.624Z,9.80
2023-01-26T08:28:49.077Z,9.90
2023-01-26T08:31:19.890Z,9.90
2023-01-26T08:33:50.651Z,9.90
2023-01-26T08:36:21.962Z,9.90
2023-01-26T08:38:50.161Z,9.90
2023-01-26T08:41:17.505Z,9.90
2023-01-26T08:43:44.574Z,9.90
2023-01-26T08:46:11.724Z,9.90
2023-01-26T08:48:38.841Z,10.00
2023-01-26T08:51:07.185Z,9.90
2023-01-26T08:53:35.587Z,10.00
2023-01-26T08:56:07.451Z,10.00
2023-01-26T08:58:35.205Z,10.00
2023-01-26T09:01:06.880Z,10.00
2023-01-26T09:03:34.012Z,10.00
2023-01-26T09:06:04.318Z,10.00
2023-01-26T09:08:31.572Z,10.00
2023-01-26T09:10:58.660Z,10.00
2023-01-26T09:13:25.650Z,10.00
2023-01-26T09:15:53.113Z,10.10
2023-01-26T09:18:20.576Z,10.10
2023-01-26T09:20:47.574Z,10.10
2023-01-26T09:23:16.871Z,10.10
2023-01-26T09:25:45.066Z,10.10
2023-01-26T09:28:12.057Z,10.10
2023-01-26T09:30:39.098Z,10.10
2023-01-26T09:33:06.919Z,10.10
2023-01-26T09:35:33.990Z,10.10
2023-01-26T09:38:00.930Z,10.10
2023-01-26T09:40:27.826Z,10.10
2023-01-26T09:43:08.927Z,10.10
2023-01-26T09:45:55.692Z,10.10
2023-01-26T09:48:41.000Z,10.10
2023-01-26T09:51:26.531Z,10.10
2023-01-26T09:53:58.038Z,10.10
2023-01-26T09:56:30.597Z,10.10
2023-01-26T09:59:07.007Z,10.20
2023-01-26T10:01:51.277Z,10.20
2023-01-26T10:04:44.095Z,10.20
2023-01-26T10:07:13.940Z,10.20
2023-01-26T10:09:51.908Z,10.20
2023-01-26T10:12:21.652Z,10.30
2023-01-26T10:15:05.969Z,10.20
2023-01-26T10:17:36.839Z,10.20
2023-01-26T10:20:22.766Z,10.30
2023-01-26T10:22:54.023Z,10.30
2023-01-26T10:25:35.083Z,10.30
2023-01-26T10:28:21.901Z,10.30
2023-01-26T10:30:51.318Z,10.40
2023-01-26T10:33:27.263Z,10.40
2023-01-26T10:35:54.571Z,10.40
2023-01-26T10:38:33.753Z,10.40
2023-01-26T10:41:19.467Z,10.40
2023-01-26T10:43:58.221Z,10.50
2023-01-26T10:46:45.497Z,10.50
2023-01-26T10:49:12.502Z,10.50
2023-01-26T10:51:42.556Z,10.50
2023-01-26T10:54:24.853Z,10.60
2023-01-26T10:56:59.315Z,10.60
2023-01-26T10:59:39.247Z,10.70
2023-01-26T11:02:11.984Z,10.70
2023-01-26T11:04:39.803Z,10.70
2023-01-26T11:07:44.148Z,10.70
2023-01-26T11:10:17.227Z,10.80
2023-01-26T11:12:44.440Z,10.80
2023-01-26T11:15:21.285Z,10.80
2023-01-26T11:18:23.565Z,10.80
2023-01-26T11:21:01.251Z,10.80
2023-01-26T11:23:33.991Z,10.80
2023-01-26T11:26:11.448Z,10.80
2023-01-26T11:29:07.664Z,10.80
2023-01-26T11:31:43.609Z,10.80
2023-01-26T11:34:10.486Z,10.80
2023-01-26T11:36:52.865Z,10.70
2023-01-26T11:39:53.690Z,10.70
2023-01-26T11:42:45.951Z,10.70
2023-01-26T11:45:50.465Z,10.60
2023-01-26T11:48:45.304Z,10.60
2023-01-26T11:51:24.576Z,10.60
2023-01-26T11:54:12.873Z,10.60
2023-01-26T11:57:04.525Z,10.60
2023-01-26T11:59:38.690Z,10.60
2023-01-26T12:02:14.551Z,10.60
2023-01-26T12:04:46.890Z,10.60
2023-01-26T12:08:03.783Z,10.50
2023-01-26T12:10:34.851Z,10.50
2023-01-26T12:13:17.161Z,10.60
2023-01-26T12:15:50.526Z,10.60
2023-01-26T12:18:42.238Z,10.60
2023-01-26T12:21:14.403Z,10.60
2023-01-26T12:23:59.268Z,10.60
2023-01-26T12:26:32.063Z,10.50
2023-01-26T12:29:09.909Z,10.50
2023-01-26T12:32:00.333Z,10.50
2023-01-26T12:34:31.229Z,10.50
2023-01-26T12:37:20.920Z,10.50
2023-01-26T12:40:09.985Z,10.50
2023-01-26T12:42:47.713Z,10.50
2023-01-26T12:45:38.076Z,10.50
2023-01-26T12:48:15.483Z,10.60
2023-01-26T12:50:59.464Z,10.60
2023-01-26T12:53:37.876Z,10.60
2023-01-26T12:56:20.077Z,10.70
2023-01-26T12:58:50.096Z,10.70
2023-01-26T13:01:20.684Z,10.70
2023-01-26T13:04:08.788Z,10.60
2023-01-26T13:06:35.793Z,10.60
2023-01-26T13:09:26.709Z,10.50
2023-01-26T13:11:53.744Z,10.50
2023-01-26T13:14:43.188Z,10.50
2023-01-26T13:17:49.103Z,10.50
2023-01-26T13:20:23.983Z,10.50
2023-01-26T13:22:51.915Z,10.60
2023-01-26T13:25:32.570Z,10.70
2023-01-26T13:28:01.711Z,10.70
2023-01-26T13:30:32.314Z,10.80
2023-01-26T13:33:08.930Z,10.80
2023-01-26T13:35:36.397Z,10.80
2023-01-26T13:38:39.319Z,10.90
2023-01-26T13:41:17.701Z,10.90
2023-01-26T13:43:50.489Z,11.00
2023-01-26T13:46:36.873Z,11.10
2023-01-26T13:49:03.970Z,11.20
2023-01-26T13:51:33.988Z,11.40
2023-01-26T13:54:06.393Z,11.60
2023-01-26T13:56:58.936Z,11.70
2023-01-26T13:59:25.983Z,12.00
2023-01-26T14:01:55.277Z,12.40
2023-01-26T14:04:26.876Z,12.60
2023-01-26T14:07:05.788Z,12.90
2023-01-26T14:09:40.592Z,13.10
2023-01-26T14:12:08.468Z,13.20
2023-01-26T14:14:37.899Z,13.30
2023-01-26T14:17:23.425Z,13.40
2023-01-26T14:19:50.447Z,13.40
2023-01-26T14:22:18.679Z,13.30
2023-01-26T14:24:51.456Z,13.30
2023-01-26T14:27:32.690Z,13.10
2023-01-26T14:30:00.024Z,12.90
2023-01-26T14:32:29.789Z,12.70
2023-01-26T14:34:59.744Z,12.50
2023-01-26T14:37:28.287Z,12.40
2023-01-26T14:40:20.423Z,12.20
2023-01-26T14:42:53.148Z,12.10
2023-01-26T14:45:48.347Z,11.90
2023-01-26T14:48:19.459Z,11.80
2023-01-26T14:50:47.981Z,11.80
2023-01-26T14:53:32.874Z,11.70
2023-01-26T14:55:59.916Z,11.60
2023-01-26T14:58:32.320Z,11.50
2023-01-26T15:01:01.241Z,11.50
2023-01-26T15:03:33.592Z,11.50
2023-01-26T15:06:09.343Z,11.40
2023-01-26T15:08:36.563Z,11.40
2023-01-26T15:11:22.575Z,11.40
2023-01-26T15:13:55.166Z,11.40
2023-01-26T15:16:26.255Z,11.30
2023-01-26T15:19:01.624Z,11.30
2023-01-26T15:21:40.078Z,11.20
2023-01-26T15:24:13.936Z,11.20
2023-01-26T15:26:41.500Z,11.20
2023-01-26T15:29:22.207Z,11.10
2023-01-26T15:31:53.901Z,11.10
2023-01-26T15:34:29.365Z,11.10
2023-01-26T15:36:58.620Z,11.10
2023-01-26T15:39:25.820Z,11.10
2023-01-26T15:42:07.805Z,11.10
2023-01-26T15:44:34.783Z,11.00
2023-01-26T15:47:01.783Z,11.00
2023-01-26T15:49:28.866Z,11.00
2023-01-26T15:51:55.833Z,11.00
2023-01-26T15:54:22.845Z,11.00
2023-01-26T15:56:49.775Z,11.00
2023-01-26T15:59:16.667Z,10.90
2023-01-26T16:01:43.789Z,10.90
2023-01-26T16:04:14.010Z,10.90
2023-01-26T16:06:41.166Z,10.90
2023-01-26T16:09:08.215Z,10.90
2023-01-26T16:11:39.494Z,10.90
2023-01-26T16:14:07.968Z,10.90
2023-01-26T16:16:35.123Z,10.80
2023-01-26T16:19:02.171Z,10.80
2023-01-26T16:21:33.813Z,10.80
2023-01-26T16:24:02.460Z,10.70
2023-01-26T16:26:30.138Z,10.70
2023-01-26T16:28:57.718Z,10.70
2023-01-26T16:31:29.018Z,10.60
2023-01-26T16:33:56.260Z,10.50
2023-01-26T16:36:23.460Z,10.50
2023-01-26T16:38:50.420Z,10.50
2023-01-26T16:41:29.471Z,10.40
2023-01-26T16:43:59.545Z,10.40
2023-01-26T16:46:28.143Z,10.40
2023-01-26T16:48:55.617Z,10.40
2023-01-26T16:51:27.510Z,10.30
2023-01-26T16:53:55.529Z,10.30
2023-01-26T16:56:24.698Z,10.30
2023-01-26T16:58:52.342Z,10.30
2023-01-26T17:01:20.880Z,10.20
2023-01-26T17:03:48.851Z,10.20
2023-01-26T17:06:17.164Z,10.20
2023-01-26T17:08:44.772Z,10.20
2023-01-26T17:11:23.320Z,10.10
2023-01-26T17:13:51.113Z,10.10
2023-01-26T17:16:25.389Z,10.10
2023-01-26T17:18:52.833Z,10.10
2023-01-26T17:21:21.221Z,10.00
2023-01-26T17:23:52.764Z,10.00
2023-01-26T17:26:21.365Z,10.00
2023-01-26T17:28:50.664Z,10.00
2023-01-26T17:31:20.298Z,10.00
2023-01-26T17:33:48.706Z,10.00
2023-01-26T17:36:16.510Z,10.00
2023-01-26T17:38:43.631Z,10.00
2023-01-26T17:41:10.919Z,10.00
2023-01-26T17:43:37.928Z,10.00
2023-01-26T17:46:13.542Z,9.90
2023-01-26T17:48:42.635Z,9.90
2023-01-26T17:51:14.007Z,9.90
2023-01-26T17:53:42.509Z,9.90
2023-01-26T17:56:12.573Z,9.90
2023-01-26T17:58:39.924Z,9.90
2023-01-26T18:01:08.802Z,9.80
2023-01-26T18:03:39.619Z,9.80
2023-01-26T18:06:06.706Z,9.80
2023-01-26T18:08:33.688Z,9.80
2023-01-26T18:11:02.485Z,9.80
2023-01-26T18:13:30.585Z,9.70
2023-01-26T18:15:58.026Z,9.70
2023-01-26T18:18:26.386Z,9.70
2023-01-26T18:20:54.243Z,9.70
2023-01-26T18:23:22.499Z,9.60
2023-01-26T18:25:49.951Z,9.60
2023-01-26T18:28:17.049Z,9.50
2023-01-26T18:30:44.043Z,9.50
2023-01-26T18:33:11.172Z,9.50
2023-01-26T18:35:38.183Z,9.50
2023-01-26T18:38:05.144Z,9.40
2023-01-26T18:40:32.169Z,9.40
2023-01-26T18:42:59.254Z,9.40
2023-01-26T18:45:26.270Z,9.40
2023-01-26T18:47:53.165Z,9.40
2023-01-26T18:50:20.137Z,9.40
2023-01-26T18:52:47.086Z,9.40
2023-01-26T18:55:14.456Z,9.40
2023-01-26T18:57:41.611Z,9.40
2023-01-26T19:00:09.347Z,9.50
2023-01-26T19:02:38.932Z,9.40
2023-01-26T19:05:09.472Z,9.40
2023-01-26T19:07:36.493Z,9.40
2023-01-26T19:10:04.997Z,9.40
2023-01-26T19:12:32.165Z,9.40
2023-01-26T19:14:59.161Z,9.40
2023-01-26T19:17:26.302Z,9.40
2023-01-26T19:19:53.292Z,9.40
2023-01-26T19:22:20.496Z,9.40
2023-01-26T19:24:47.462Z,9.40
2023-01-26T19:27:14.488Z,9.40
2023-01-26T19:29:41.518Z,9.40
2023-01-26T19:32:08.477Z,9.40
2023-01-26T19:34:35.572Z,9.40
2023-01-26T19:37:02.974Z,9.40
2023-01-26T19:39:31.086Z,9.40
2023-01-26T19:41:58.107Z,9.40
2023-01-26T19:44:25.127Z,9.40
2023-01-26T19:46:52.975Z,9.40
2023-01-26T19:49:21.401Z,9.40
2023-01-26T19:51:48.953Z,9.40
2023-01-26T19:54:16.066Z,9.40
2023-01-26T19:56:43.141Z,9.40
2023-01-26T19:59:11.638Z,9.40
2023-01-26T20:01:39.114Z,9.40
2023-01-26T20:04:09.367Z,9.40
2023-01-26T20:06:37.542Z,9.40
2023-01-26T20:09:06.434Z,9.40
2023-01-26T20:11:34.182Z,9.40
2023-01-26T20:14:04.376Z,9.40
2023-01-26T20:16:32.088Z,9.50
2023-01-26T20:18:59.653Z,9.50
2023-01-26T20:21:28.258Z,9.50
2023-01-26T20:23:56.199Z,9.50
2023-01-26T20:26:25.935Z,9.50
2023-01-26T20:28:53.729Z,9.50
2023-01-26T20:31:23.775Z,9.50
2023-01-26T20:33:53.290Z,9.50
2023-01-26T20:36:23.849Z,9.50
2023-01-26T20:38:51.928Z,9.50
2023-01-26T20:41:21.926Z,9.60
2023-01-26T20:43:59.213Z,9.60
2023-01-26T20:46:29.554Z,9.50
2023-01-26T20:48:56.815Z,9.50
2023-01-26T20:51:28.685Z,9.50
2023-01-26T20:53:57.576Z,9.60
2023-01-26T20:56:24.817Z,9.60
2023-01-26T20:58:53.740Z,9.60
2023-01-26T21:01:22.525Z,9.50
2023-01-26T21:03:49.952Z,9.50
2023-01-26T21:06:19.140Z,9.60
2023-01-26T21:08:47.840Z,9.60
2023-01-26T21:11:16.874Z,9.60
2023-01-26T21:13:45.277Z,9.60
2023-01-26T21:16:17.211Z,9.60
2023-01-26T21:18:45.458Z,9.60
2023-01-26T21:21:14.825Z,9.60
2023-01-26T21:23:41.925Z,9.60
2023-01-26T21:26:14.667Z,9.60
2023-01-26T21:28:41.800Z,9.60
2023-01-26T21:31:11.335Z,9.60
2023-01-26T21:33:40.726Z,9.60
2023-01-26T21:36:09.601Z,9.60
2023-01-26T21:38:38.917Z,9.60
2023-01-26T21:41:30.145Z,9.60
2023-01-26T21:43:59.049Z,9.60
2023-01-26T21:46:28.913Z,9.60
2023-01-26T21:48:56.099Z,9.60
2023-01-26T21:51:42.087Z,9.60
2023-01-26T21:54:09.226Z,9.60
2023-01-26T21:56:36.405Z,9.60
2023-01-26T21:59:07.648Z,9.60
2023-01-26T22:01:39.979Z,9.60
2023-01-26T22:04:10.060Z,9.60
2023-01-26T22:06:37.452Z,9.60
2023-01-26T22:09:05.467Z,9.60
2023-01-26T22:11:32.937Z,9.60
2023-01-26T22:14:00.300Z,9.60
2023-01-26T22:16:28.208Z,9.60
2023-01-26T22:18:55.334Z,9.50
2023-01-26T22:21:22.580Z,9.50
2023-01-26T22:23:50.485Z,9.50
2023-01-26T22:26:19.948Z,9.50
2023-01-26T22:28:55.194Z,9.50
2023-01-26T22:31:26.177Z,9.50
2023-01-26T22:33:54.567Z,9.60
2023-01-26T22:36:22.280Z,9.50
2023-01-26T22:38:49.928Z,9.50
2023-01-26T22:41:20.279Z,9.50
2023-01-26T22:43:48.451Z,9.50
2023-01-26T22:46:17.540Z,9.50
2023-01-26T22:48:45.038Z,9.50
2023-01-26T22:51:21.761Z,9.50
2023-01-26T22:53:51.571Z,9.50
2023-01-26T22:56:19.041Z,9.50
2023-01-26T22:58:59.453Z,9.50
2023-01-26T23:01:28.915Z,9.50
2023-01-26T23:03:56.739Z,9.50
2023-01-26T23:06:24.288Z,9.50
2023-01-26T23:08:52.301Z,9.50
2023-01-26T23:11:24.864Z,9.50
2023-01-26T23:13:53.646Z,9.40
2023-01-26T23:16:23.424Z,9.40
2023-01-26T23:18:52.127Z,9.50
2023-01-26T23:21:19.200Z,9.50
2023-01-26T23:23:46.247Z,9.50
2023-01-26T23:26:13.256Z,9.50
2023-01-26T23:28:42.405Z,9.50
2023-01-26T23:31:10.795Z,9.50
2023-01-26T23:33:38.622Z,9.50
2023-01-26T23:36:07.350Z,9.50
2023-01-26T23:38:34.403Z,9.50
2023-01-26T23:41:01.688Z,9.50
2023-01-26T23:43:28.949Z,9.50
2023-01-26T23:45:56.890Z,9.50
2023-01-26T23:48:25.026Z,9.50
2023-01-26T23:50:58.655Z,9.50
2023-01-26T23:53:25.993Z,9.50
2023-01-26T23:55:53.043Z,9.50
2023-01-26T23:58:20.513Z,9.50
